createdAt,value
2022-10-11T00:00:40.881Z,9.70
2022-10-11T00:01:40.988Z,9.77
2022-10-11T00:02:40.869Z,9.74
2022-10-11T00:03:40.837Z,9.74
2022-10-11T00:04:40.905Z,9.58
2022-10-11T00:05:40.806Z,9.67
2022-10-11T00:06:40.857Z,9.53
2022-10-11T00:07:40.783Z,9.56
2022-10-11T00:08:40.753Z,9.59
2022-10-11T00:09:40.772Z,9.62
2022-10-11T00:10:40.741Z,9.60
2022-10-11T00:11:41.715Z,9.60
2022-10-11T00:12:40.695Z,9.62
2022-10-11T00:13:40.683Z,9.55
2022-10-11T00:14:40.805Z,9.58
2022-10-11T00:15:40.651Z,9.50
2022-10-11T00:16:40.620Z,9.58
2022-10-11T00:17:40.681Z,9.53
2022-10-11T00:18:40.627Z,9.48
2022-10-11T00:19:40.596Z,9.59
2022-10-11T00:20:40.553Z,9.50
2022-10-11T00:21:40.541Z,9.48
2022-10-11T00:22:40.529Z,9.49
2022-10-11T00:23:40.505Z,9.48
2022-10-11T00:24:40.630Z,9.41
2022-10-11T00:25:40.544Z,9.45
2022-10-11T00:26:45.734Z,9.48
2022-10-11T00:27:42.470Z,9.41
2022-10-11T00:28:40.627Z,9.48
2022-10-11T00:29:40.440Z,9.45
2022-10-11T00:30:40.390Z,9.41
2022-10-11T00:31:40.376Z,9.30
2022-10-11T00:32:40.366Z,9.41
2022-10-11T00:33:40.322Z,9.34
2022-10-11T00:34:40.475Z,9.40
2022-10-11T00:35:40.294Z,9.37
2022-10-11T00:36:40.325Z,9.35
2022-10-11T00:37:40.260Z,9.45
2022-10-11T00:38:40.260Z,9.40
2022-10-11T00:39:40.314Z,9.38
2022-10-11T00:40:40.190Z,9.30
2022-10-11T00:41:40.172Z,9.38
2022-10-11T00:42:40.194Z,9.35
2022-10-11T00:43:40.197Z,9.31
2022-10-11T00:44:40.232Z,9.35
2022-10-11T00:45:40.142Z,9.40
2022-10-11T00:46:40.105Z,9.24
2022-10-11T00:47:40.077Z,9.35
2022-10-11T00:48:40.082Z,9.24
2022-10-11T00:49:40.082Z,9.37
2022-10-11T00:50:40.090Z,9.27
2022-10-11T00:51:40.032Z,9.31
2022-10-11T00:52:40.006Z,9.35
2022-10-11T00:53:39.980Z,9.30
2022-10-11T00:54:40.103Z,9.19
2022-10-11T00:55:39.990Z,9.32
2022-10-11T00:56:39.932Z,9.26
2022-10-11T00:57:39.930Z,9.27
2022-10-11T00:58:39.909Z,9.24
2022-10-11T00:59:39.911Z,9.24
2022-10-11T01:00:39.868Z,9.13
2022-10-11T01:01:39.911Z,9.16
2022-10-11T01:02:39.823Z,9.20
2022-10-11T01:03:39.836Z,9.12
2022-10-11T01:04:39.865Z,9.22
2022-10-11T01:05:39.789Z,9.19
2022-10-11T01:06:39.752Z,9.15
2022-10-11T01:07:39.746Z,9.12
2022-10-11T01:08:39.729Z,9.16
2022-10-11T01:09:39.763Z,9.06
2022-10-11T01:10:39.724Z,9.01
2022-10-11T01:11:39.751Z,9.15
2022-10-11T01:12:39.756Z,9.04
2022-10-11T01:13:40.636Z,9.15
2022-10-11T01:14:39.672Z,9.13
2022-10-11T01:15:39.598Z,9.04
2022-10-11T01:16:39.601Z,9.06
2022-10-11T01:17:39.571Z,9.15
2022-10-11T01:18:39.563Z,9.13
2022-10-11T01:19:39.579Z,9.15
2022-10-11T01:20:39.555Z,9.10
2022-10-11T01:21:39.529Z,9.12
2022-10-11T01:22:39.502Z,9.19
2022-10-11T01:23:39.609Z,9.12
2022-10-11T01:24:39.587Z,9.12
2022-10-11T01:25:39.515Z,9.13
2022-10-11T01:26:39.418Z,9.12
2022-10-11T01:27:39.434Z,9.16
2022-10-11T01:28:39.447Z,9.04
2022-10-11T01:29:39.419Z,9.06
2022-10-11T01:30:39.383Z,8.96
2022-10-11T01:31:39.343Z,9.01
2022-10-11T01:32:39.306Z,9.01
2022-10-11T01:33:39.318Z,8.97
2022-10-11T01:34:39.381Z,9.00
2022-10-11T01:35:39.315Z,8.94
2022-10-11T01:36:39.274Z,8.91
2022-10-11T01:37:39.240Z,8.93
2022-10-11T01:38:39.245Z,8.93
2022-10-11T01:39:39.189Z,8.98
2022-10-11T01:40:39.232Z,8.96
2022-10-11T01:41:39.165Z,8.86
2022-10-11T01:42:39.151Z,8.93
2022-10-11T01:43:39.108Z,8.89
2022-10-11T01:44:39.157Z,8.94
2022-10-11T01:45:39.315Z,8.89
2022-10-11T01:46:39.102Z,8.89
2022-10-11T01:47:39.055Z,8.91
2022-10-11T01:48:39.043Z,8.96
2022-10-11T01:49:39.007Z,8.89
2022-10-11T01:50:39.031Z,8.86
2022-10-11T01:51:38.981Z,8.85
2022-10-11T01:52:38.975Z,8.94
2022-10-11T01:53:39.932Z,8.94
2022-10-11T01:55:07.684Z,8.86
2022-10-11T01:55:40.948Z,8.91
2022-10-11T01:56:38.938Z,8.89
2022-10-11T01:57:38.880Z,8.91
2022-10-11T01:58:38.888Z,8.96
2022-10-11T01:59:38.873Z,8.93
2022-10-11T02:00:38.871Z,8.83
2022-10-11T02:01:39.872Z,8.89
2022-10-11T02:02:38.796Z,8.91
2022-10-11T02:03:38.784Z,8.89
2022-10-11T02:04:38.805Z,8.80
2022-10-11T02:05:38.787Z,8.86
2022-10-11T02:06:38.734Z,8.83
2022-10-11T02:07:38.800Z,8.86
2022-10-11T02:08:38.694Z,8.89
2022-10-11T02:09:38.693Z,8.89
2022-10-11T02:10:38.693Z,8.88
2022-10-11T02:11:38.654Z,8.86
2022-10-11T02:12:38.667Z,8.83
2022-10-11T02:13:38.614Z,8.89
2022-10-11T02:14:38.650Z,8.79
2022-10-11T02:15:38.614Z,8.82
2022-10-11T02:16:38.545Z,8.71
2022-10-11T02:17:38.565Z,8.80
2022-10-11T02:18:38.629Z,8.85
2022-10-11T02:19:38.496Z,8.86
2022-10-11T02:20:38.508Z,8.85
2022-10-11T02:21:38.474Z,8.83
2022-10-11T02:22:38.483Z,8.83
2022-10-11T02:23:38.450Z,8.83
2022-10-11T02:24:38.448Z,8.83
2022-10-11T02:25:38.441Z,8.82
2022-10-11T02:26:38.388Z,8.82
2022-10-11T02:27:38.367Z,8.78
2022-10-11T02:28:38.404Z,8.85
2022-10-11T02:29:38.366Z,8.83
2022-10-11T02:30:38.362Z,8.79
2022-10-11T02:31:38.308Z,8.82
2022-10-11T02:32:38.275Z,8.65
2022-10-11T02:33:38.286Z,8.82
2022-10-11T02:34:38.235Z,8.73
2022-10-11T02:35:38.259Z,8.79
2022-10-11T02:36:38.213Z,8.76
2022-10-11T02:37:38.199Z,8.73
2022-10-11T02:38:38.177Z,8.86
2022-10-11T02:39:38.174Z,8.76
2022-10-11T02:40:38.272Z,8.79
2022-10-11T02:41:38.137Z,8.68
2022-10-11T02:42:38.113Z,8.73
2022-10-11T02:43:38.105Z,8.76
2022-10-11T02:44:38.100Z,8.76
2022-10-11T02:45:38.107Z,8.70
2022-10-11T02:46:38.068Z,8.75
2022-10-11T02:47:38.035Z,8.73
2022-10-11T02:48:38.022Z,8.70
2022-10-11T02:49:37.992Z,8.78
2022-10-11T02:50:38.003Z,8.75
2022-10-11T02:51:38.058Z,8.80
2022-10-11T02:52:37.951Z,8.79
2022-10-11T02:53:37.927Z,8.75
2022-10-11T02:54:37.912Z,8.70
2022-10-11T02:55:37.940Z,8.70
2022-10-11T02:56:37.888Z,8.85
2022-10-11T02:57:37.883Z,8.78
2022-10-11T02:58:37.866Z,8.75
2022-10-11T02:59:37.898Z,8.70
2022-10-11T03:00:37.836Z,8.75
2022-10-11T03:01:37.877Z,8.73
2022-10-11T03:02:37.773Z,8.70
2022-10-11T03:03:37.780Z,8.78
2022-10-11T03:04:37.759Z,8.68
2022-10-11T03:05:37.783Z,8.68
2022-10-11T03:06:37.724Z,8.75
2022-10-11T03:07:37.703Z,8.76
2022-10-11T03:08:37.701Z,8.78
2022-10-11T03:09:37.659Z,8.68
2022-10-11T03:10:37.675Z,8.67
2022-10-11T03:11:37.623Z,8.68
2022-10-11T03:12:37.592Z,8.68
2022-10-11T03:13:37.599Z,8.65
2022-10-11T03:14:37.559Z,8.68
2022-10-11T03:15:37.571Z,8.63
2022-10-11T03:16:37.530Z,8.63
2022-10-11T03:17:37.777Z,8.65
2022-10-11T03:18:37.492Z,8.55
2022-10-11T03:19:37.479Z,8.61
2022-10-11T03:20:37.509Z,8.60
2022-10-11T03:21:37.441Z,8.61
2022-10-11T03:22:37.425Z,8.52
2022-10-11T03:23:37.411Z,8.54
2022-10-11T03:24:37.391Z,8.67
2022-10-11T03:25:37.466Z,8.55
2022-10-11T03:26:37.381Z,8.55
2022-10-11T03:27:37.337Z,8.58
2022-10-11T03:28:37.367Z,8.46
2022-10-11T03:29:37.309Z,8.52
2022-10-11T03:30:37.351Z,8.39
2022-10-11T03:31:37.293Z,8.42
2022-10-11T03:32:37.247Z,8.45
2022-10-11T03:33:37.246Z,8.40
2022-10-11T03:34:37.242Z,8.39
2022-10-11T03:35:37.249Z,8.42
2022-10-11T03:36:37.193Z,8.36
2022-10-11T03:37:37.186Z,8.43
2022-10-11T03:38:37.173Z,8.36
2022-10-11T03:39:37.128Z,8.36
2022-10-11T03:40:37.150Z,8.40
2022-10-11T03:41:37.141Z,8.40
2022-10-11T03:42:37.098Z,8.37
2022-10-11T03:43:37.072Z,8.22
2022-10-11T03:44:37.055Z,8.20
2022-10-11T03:45:37.078Z,8.37
2022-10-11T03:46:37.050Z,8.25
2022-10-11T03:47:36.995Z,8.24
2022-10-11T03:48:37.013Z,8.24
2022-10-11T03:49:41.348Z,8.21
2022-10-11T03:50:39.031Z,8.28
2022-10-11T03:51:36.937Z,8.17
2022-10-11T03:52:36.923Z,8.21
2022-10-11T03:53:36.918Z,8.17
2022-10-11T03:54:36.894Z,8.29
2022-10-11T03:55:36.898Z,8.14
2022-10-11T03:56:36.850Z,8.27
2022-10-11T03:57:36.835Z,8.21
2022-10-11T03:58:36.812Z,8.18
2022-10-11T03:59:36.814Z,8.22
2022-10-11T04:00:36.821Z,8.25
2022-10-11T04:01:36.864Z,8.24
2022-10-11T04:02:39.186Z,8.27
2022-10-11T04:03:37.741Z,8.22
2022-10-11T04:04:36.728Z,8.28
2022-10-11T04:05:36.726Z,8.25
2022-10-11T04:06:36.667Z,8.37
2022-10-11T04:07:36.668Z,8.36
2022-10-11T04:08:36.642Z,8.25
2022-10-11T04:09:36.641Z,8.25
2022-10-11T04:10:36.645Z,8.27
2022-10-11T04:11:36.596Z,8.28
2022-10-11T04:12:36.570Z,8.36
2022-10-11T04:13:36.553Z,8.29
2022-10-11T04:14:36.540Z,8.31
2022-10-11T04:15:36.517Z,8.34
2022-10-11T04:16:36.535Z,8.40
2022-10-11T04:17:36.492Z,8.29
2022-10-11T04:18:36.465Z,8.39
2022-10-11T04:19:36.482Z,8.32
2022-10-11T04:20:36.429Z,8.32
2022-10-11T04:21:36.443Z,8.32
2022-10-11T04:22:36.406Z,8.32
2022-10-11T04:23:36.396Z,8.39
2022-10-11T04:24:36.363Z,8.39
2022-10-11T04:25:36.336Z,8.34
2022-10-11T04:26:37.385Z,8.34
2022-10-11T04:27:36.310Z,8.32
2022-10-11T04:28:36.355Z,8.45
2022-10-11T04:29:36.291Z,8.36
2022-10-11T04:30:36.272Z,8.36
2022-10-11T04:31:36.289Z,8.39
2022-10-11T04:32:36.242Z,8.32
2022-10-11T04:33:36.251Z,8.39
2022-10-11T04:34:36.206Z,8.40
2022-10-11T04:35:36.175Z,8.47
2022-10-11T04:36:36.217Z,8.49
2022-10-11T04:37:36.145Z,8.52
2022-10-11T04:38:36.138Z,8.50
2022-10-11T04:39:36.146Z,8.58
2022-10-11T04:40:36.140Z,8.54
2022-10-11T04:41:36.095Z,8.63
2022-10-11T04:42:36.110Z,8.65
2022-10-11T04:43:36.085Z,8.57
2022-10-11T04:44:36.069Z,8.64
2022-10-11T04:45:36.075Z,8.65
2022-10-11T04:46:36.022Z,8.70
2022-10-11T04:47:35.985Z,8.70
2022-10-11T04:48:35.962Z,8.73
2022-10-11T04:49:35.945Z,8.70
2022-10-11T04:50:35.999Z,8.85
2022-10-11T04:51:35.961Z,8.80
2022-10-11T04:52:35.887Z,8.89
2022-10-11T04:53:35.877Z,8.85
2022-10-11T04:54:35.883Z,8.89
2022-10-11T04:55:35.876Z,8.93
2022-10-11T04:56:35.859Z,8.86
2022-10-11T04:57:35.833Z,9.08
2022-10-11T04:58:35.809Z,8.96
2022-10-11T04:59:35.791Z,9.04
2022-10-11T05:00:35.847Z,9.00
2022-10-11T05:01:35.785Z,9.00
2022-10-11T05:02:35.726Z,9.00
2022-10-11T05:03:35.716Z,9.00
2022-10-11T05:04:35.712Z,9.08
2022-10-11T05:05:35.713Z,9.04
2022-10-11T05:06:36.673Z,9.08
2022-10-11T05:07:35.633Z,9.08
2022-10-11T05:08:35.628Z,9.04
2022-10-11T05:09:35.608Z,9.13
2022-10-11T05:10:35.636Z,9.17
2022-10-11T05:11:35.584Z,9.19
2022-10-11T05:12:35.570Z,9.23
2022-10-11T05:13:35.564Z,9.19
2022-10-11T05:14:35.549Z,9.17
2022-10-11T05:15:35.546Z,9.23
2022-10-11T05:16:35.500Z,9.17
2022-10-11T05:17:35.495Z,9.19
2022-10-11T05:18:35.482Z,9.22
2022-10-11T05:19:35.434Z,9.22
2022-10-11T05:20:35.462Z,9.27
2022-10-11T05:21:35.417Z,9.23
2022-10-11T05:22:35.376Z,9.26
2022-10-11T05:23:35.394Z,9.23
2022-10-11T05:24:35.361Z,9.24
2022-10-11T05:25:35.385Z,9.23
2022-10-11T05:26:35.321Z,9.20
2022-10-11T05:27:35.293Z,9.24
2022-10-11T05:28:35.311Z,9.27
2022-10-11T05:29:35.272Z,9.31
2022-10-11T05:30:35.282Z,9.40
2022-10-11T05:31:35.230Z,9.32
2022-10-11T05:32:35.212Z,9.45
2022-10-11T05:33:35.249Z,9.37
2022-10-11T05:34:35.193Z,9.34
2022-10-11T05:35:35.222Z,9.32
2022-10-11T05:36:35.169Z,9.34
2022-10-11T05:37:35.135Z,9.32
2022-10-11T05:38:35.119Z,9.34
2022-10-11T05:39:35.086Z,9.34
2022-10-11T05:40:35.119Z,9.35
2022-10-11T05:41:35.073Z,9.35
2022-10-11T05:42:35.032Z,9.32
2022-10-11T05:43:35.061Z,9.41
2022-10-11T05:44:35.008Z,9.35
2022-10-11T05:45:34.974Z,9.44
2022-10-11T05:46:35.040Z,9.44
2022-10-11T05:47:34.954Z,9.42
2022-10-11T05:48:34.938Z,9.45
2022-10-11T05:49:34.926Z,9.41
2022-10-11T05:50:34.904Z,9.45
2022-10-11T05:51:34.919Z,9.41
2022-10-11T05:52:34.894Z,9.45
2022-10-11T05:53:34.851Z,9.41
2022-10-11T05:54:35.878Z,9.35
2022-10-11T05:55:34.822Z,9.37
2022-10-11T05:56:34.832Z,9.26
2022-10-11T05:57:34.769Z,9.26
2022-10-11T05:58:34.799Z,9.30
2022-10-11T05:59:34.766Z,9.35
2022-10-11T06:00:34.748Z,9.37
2022-10-11T06:01:34.861Z,9.41
2022-10-11T06:02:34.713Z,9.34
2022-10-11T06:03:34.722Z,9.38
2022-10-11T06:04:34.680Z,9.45
2022-10-11T06:05:34.640Z,9.42
2022-10-11T06:06:34.653Z,9.52
2022-10-11T06:07:34.636Z,9.41
2022-10-11T06:08:34.674Z,9.50
2022-10-11T06:09:34.595Z,9.55
2022-10-11T06:10:34.581Z,9.58
2022-10-11T06:11:34.625Z,9.56
2022-10-11T06:12:34.522Z,9.56
2022-10-11T06:13:34.526Z,9.50
2022-10-11T06:14:34.481Z,9.44
2022-10-11T06:15:34.510Z,9.52
2022-10-11T06:16:34.482Z,9.48
2022-10-11T06:17:34.426Z,9.50
2022-10-11T06:18:34.433Z,9.55
2022-10-11T06:19:34.407Z,9.50
2022-10-11T06:20:34.420Z,9.49
2022-10-11T06:21:34.407Z,9.58
2022-10-11T06:22:34.381Z,9.59
2022-10-11T06:23:34.356Z,9.55
2022-10-11T06:24:34.342Z,9.59
2022-10-11T06:25:34.304Z,9.52
2022-10-11T06:26:34.379Z,9.52
2022-10-11T06:27:34.268Z,9.58
2022-10-11T06:28:34.352Z,9.62
2022-10-11T06:29:34.249Z,9.58
2022-10-11T06:30:34.219Z,9.67
2022-10-11T06:31:34.219Z,9.67
2022-10-11T06:32:34.174Z,9.78
2022-10-11T06:33:34.158Z,9.73
2022-10-11T06:34:34.161Z,9.91
2022-10-11T06:35:34.194Z,9.78
2022-10-11T06:36:34.222Z,9.95
2022-10-11T06:37:34.136Z,9.99
2022-10-11T06:38:34.205Z,10.04
2022-10-11T06:39:34.063Z,9.96
2022-10-11T06:40:34.051Z,9.96
2022-10-11T06:41:34.072Z,10.07
2022-10-11T06:42:33.990Z,9.92
2022-10-11T06:43:33.979Z,10.02
2022-10-11T06:44:33.981Z,10.07
2022-10-11T06:45:33.977Z,9.92
2022-10-11T06:46:33.973Z,9.96
2022-10-11T06:47:33.915Z,10.06
2022-10-11T06:48:33.922Z,9.91
2022-10-11T06:49:33.879Z,10.02
2022-10-11T06:50:57.865Z,10.06
2022-10-11T06:51:35.879Z,10.11
2022-10-11T06:52:33.850Z,10.09
2022-10-11T06:53:33.813Z,10.16
2022-10-11T06:54:33.805Z,10.18
2022-10-11T06:55:33.783Z,10.18
2022-10-11T06:56:33.813Z,10.24
2022-10-11T06:57:33.744Z,10.13
2022-10-11T06:58:33.778Z,10.20
2022-10-11T06:59:33.720Z,10.14
2022-10-11T07:00:33.723Z,10.20
2022-10-11T07:01:33.782Z,10.22
2022-10-11T07:02:33.679Z,10.07
2022-10-11T07:03:33.648Z,10.13
2022-10-11T07:04:33.623Z,10.11
2022-10-11T07:05:33.617Z,10.13
2022-10-11T07:06:33.615Z,10.18
2022-10-11T07:07:33.579Z,10.22
2022-10-11T07:08:33.566Z,10.29
2022-10-11T07:09:33.540Z,10.29
2022-10-11T07:10:33.510Z,10.32
2022-10-11T07:11:33.549Z,10.42
2022-10-11T07:12:33.498Z,10.31
2022-10-11T07:13:33.471Z,10.28
2022-10-11T07:14:33.443Z,10.34
2022-10-11T07:15:33.497Z,10.34
2022-10-11T07:16:33.453Z,10.46
2022-10-11T07:17:33.427Z,10.38
2022-10-11T07:18:33.393Z,10.36
2022-10-11T07:19:33.370Z,10.34
2022-10-11T07:20:33.354Z,10.39
2022-10-11T07:21:33.369Z,10.43
2022-10-11T07:22:33.328Z,10.46
2022-10-11T07:23:33.290Z,10.49
2022-10-11T07:24:33.332Z,10.38
2022-10-11T07:25:33.265Z,10.49
2022-10-11T07:26:38.961Z,10.47
2022-10-11T07:27:35.237Z,10.47
2022-10-11T07:28:33.335Z,10.51
2022-10-11T07:29:33.180Z,10.60
2022-10-11T07:30:33.221Z,10.62
2022-10-11T07:31:33.230Z,10.63
2022-10-11T07:32:33.140Z,10.81
2022-10-11T07:33:33.148Z,10.84
2022-10-11T07:34:33.159Z,10.98
2022-10-11T07:35:33.085Z,11.01
2022-10-11T07:36:33.143Z,11.05
2022-10-11T07:37:33.081Z,10.95
2022-10-11T07:38:33.082Z,10.95
2022-10-11T07:39:33.065Z,11.01
2022-10-11T07:40:33.025Z,11.13
2022-10-11T07:41:33.032Z,11.24
2022-10-11T07:42:32.984Z,11.31
2022-10-11T07:43:32.967Z,11.41
2022-10-11T07:44:32.948Z,11.38
2022-10-11T07:45:32.959Z,11.44
2022-10-11T07:46:32.946Z,11.41
2022-10-11T07:47:32.878Z,11.49
2022-10-11T07:48:32.878Z,11.64
2022-10-11T07:49:32.966Z,11.85
2022-10-11T07:50:32.827Z,11.97
2022-10-11T07:51:32.892Z,12.07
2022-10-11T07:52:32.781Z,12.08
2022-10-11T07:53:32.788Z,12.13
2022-10-11T07:54:32.766Z,12.18
2022-10-11T07:55:32.751Z,12.26
2022-10-11T07:56:32.776Z,12.46
2022-10-11T07:57:32.714Z,12.55
2022-10-11T07:58:32.712Z,12.49
2022-10-11T07:59:32.675Z,12.43
2022-10-11T08:00:32.749Z,12.52
2022-10-11T08:01:32.757Z,12.41
2022-10-11T08:02:32.658Z,12.46
2022-10-11T08:03:32.648Z,12.43
2022-10-11T08:04:32.577Z,12.37
2022-10-11T08:05:32.561Z,12.41
2022-10-11T08:06:32.868Z,12.30
2022-10-11T08:07:32.545Z,12.31
2022-10-11T08:08:32.523Z,12.37
2022-10-11T08:09:32.518Z,12.37
2022-10-11T08:10:32.492Z,12.46
2022-10-11T08:11:32.526Z,12.73
2022-10-11T08:12:32.475Z,12.88
2022-10-11T08:13:32.460Z,13.17
2022-10-11T08:14:32.413Z,13.43
2022-10-11T08:15:32.407Z,13.39
2022-10-11T08:16:32.431Z,13.32
2022-10-11T08:17:32.365Z,13.14
2022-10-11T08:18:32.365Z,13.09
2022-10-11T08:19:32.367Z,12.99
2022-10-11T08:20:32.352Z,12.85
2022-10-11T08:21:32.364Z,12.70
2022-10-11T08:22:32.268Z,12.74
2022-10-11T08:23:32.287Z,12.58
2022-10-11T08:24:37.305Z,12.37
2022-10-11T08:25:34.248Z,12.26
2022-10-11T08:26:32.245Z,12.01
2022-10-11T08:27:32.200Z,11.96
2022-10-11T08:28:32.238Z,11.81
2022-10-11T08:29:32.162Z,11.81
2022-10-11T08:30:32.171Z,11.87
2022-10-11T08:31:32.161Z,11.84
2022-10-11T08:32:32.106Z,11.84
2022-10-11T08:33:32.105Z,11.87
2022-10-11T08:34:32.083Z,11.81
2022-10-11T08:35:32.095Z,11.81
2022-10-11T08:36:32.086Z,11.72
2022-10-11T08:37:32.027Z,11.85
2022-10-11T08:38:32.057Z,11.88
2022-10-11T08:39:32.004Z,11.81
2022-10-11T08:40:35.300Z,11.94
2022-10-11T08:41:33.010Z,11.93
2022-10-11T08:42:31.945Z,11.85
2022-10-11T08:43:31.945Z,11.78
2022-10-11T08:44:51.824Z,11.78
2022-10-11T08:45:33.885Z,11.79
2022-10-11T08:46:31.951Z,11.69
2022-10-11T08:47:31.881Z,11.78
2022-10-11T08:48:31.862Z,11.82
2022-10-11T08:49:31.835Z,11.81
2022-10-11T08:50:31.873Z,11.94
2022-10-11T08:51:31.840Z,11.82
2022-10-11T08:52:31.801Z,11.74
2022-10-11T08:53:31.773Z,11.75
2022-10-11T08:54:31.768Z,11.87
2022-10-11T08:55:31.807Z,11.70
2022-10-11T08:56:31.743Z,11.74
2022-10-11T08:57:31.730Z,11.84
2022-10-11T08:58:31.728Z,11.85
2022-10-11T08:59:31.688Z,11.78
2022-10-11T09:00:31.641Z,11.87
2022-10-11T09:01:31.701Z,11.93
2022-10-11T09:02:49.315Z,12.04
2022-10-11T09:03:33.607Z,12.11
2022-10-11T09:04:31.598Z,12.18
2022-10-11T09:05:31.529Z,12.15
2022-10-11T09:06:31.554Z,12.15
2022-10-11T09:07:31.527Z,12.16
2022-10-11T09:08:31.487Z,12.21
2022-10-11T09:09:31.454Z,12.30
2022-10-11T09:10:31.494Z,12.19
2022-10-11T09:11:31.458Z,12.04
2022-10-11T09:12:34.245Z,12.00
2022-10-11T09:13:32.413Z,11.90
2022-10-11T09:14:31.386Z,11.77
2022-10-11T09:15:31.359Z,11.78
2022-10-11T09:16:31.404Z,11.56
2022-10-11T09:17:31.510Z,11.64
2022-10-11T09:18:31.310Z,11.75
2022-10-11T09:19:31.308Z,11.78
2022-10-11T09:20:31.286Z,11.74
2022-10-11T09:21:31.321Z,11.85
2022-10-11T09:22:31.249Z,12.04
2022-10-11T09:23:31.230Z,12.13
2022-10-11T09:24:31.231Z,12.13
2022-10-11T09:25:31.199Z,12.30
2022-10-11T09:26:31.223Z,12.36
2022-10-11T09:27:50.212Z,12.37
2022-10-11T09:28:33.214Z,12.46
2022-10-11T09:29:31.149Z,12.52
2022-10-11T09:30:31.143Z,12.63
2022-10-11T09:31:31.152Z,12.63
2022-10-11T09:32:31.118Z,12.85
2022-10-11T09:33:31.094Z,13.04
2022-10-11T09:34:31.055Z,12.96
2022-10-11T09:35:31.101Z,13.12
2022-10-11T09:36:31.082Z,13.24
2022-10-11T09:37:31.013Z,13.29
2022-10-11T09:38:31.030Z,13.43
2022-10-11T09:39:31.019Z,13.44
2022-10-11T09:40:30.952Z,13.50
2022-10-11T09:41:31.002Z,13.53
2022-10-11T09:42:30.947Z,13.51
2022-10-11T09:43:30.911Z,13.51
2022-10-11T09:44:30.907Z,13.73
2022-10-11T09:45:30.961Z,14.02
2022-10-11T09:46:30.890Z,14.23
2022-10-11T09:47:30.837Z,15.09
2022-10-11T09:48:30.818Z,16.08
2022-10-11T09:49:44.443Z,16.47
2022-10-11T09:50:32.813Z,16.75
2022-10-11T09:51:30.846Z,16.52
2022-10-11T09:52:30.761Z,16.69
2022-10-11T09:53:30.746Z,17.18
2022-10-11T09:54:30.796Z,17.99
2022-10-11T09:55:31.699Z,18.47
2022-10-11T09:56:30.741Z,18.72
2022-10-11T09:57:30.673Z,18.64
2022-10-11T09:58:30.660Z,18.32
2022-10-11T09:59:30.662Z,17.96
2022-10-11T10:00:30.627Z,17.70
2022-10-11T10:01:30.692Z,17.46
2022-10-11T10:02:30.603Z,17.30
2022-10-11T10:03:30.562Z,16.98
2022-10-11T10:04:30.576Z,16.77
2022-10-11T10:05:30.552Z,16.55
2022-10-11T10:06:30.577Z,16.42
2022-10-11T10:07:30.538Z,16.33
2022-10-11T10:08:30.489Z,16.22
2022-10-11T10:09:30.471Z,16.11
2022-10-11T10:10:30.459Z,16.08
2022-10-11T10:11:30.462Z,16.11
2022-10-11T10:12:30.420Z,16.08
2022-10-11T10:13:30.422Z,16.03
2022-10-11T10:14:30.381Z,15.89
2022-10-11T10:15:30.369Z,15.88
2022-10-11T10:16:30.428Z,15.92
2022-10-11T10:17:30.318Z,15.64
2022-10-11T10:18:30.363Z,15.64
2022-10-11T10:19:30.305Z,15.44
2022-10-11T10:20:30.320Z,15.91
2022-10-11T10:21:30.314Z,16.72
2022-10-11T10:22:30.293Z,17.22
2022-10-11T10:23:30.249Z,17.51
2022-10-11T10:24:30.247Z,18.21
2022-10-11T10:25:30.225Z,18.72
2022-10-11T10:26:30.207Z,18.84
2022-10-11T10:27:30.194Z,19.21
2022-10-11T10:28:30.179Z,19.24
2022-10-11T10:29:30.114Z,19.60
2022-10-11T10:30:35.252Z,20.02
2022-10-11T10:31:44.178Z,20.08
2022-10-11T10:32:31.111Z,20.37
2022-10-11T10:33:30.074Z,20.58
2022-10-11T10:34:30.084Z,20.50
2022-10-11T10:35:30.013Z,20.63
2022-10-11T10:36:30.038Z,21.15
2022-10-11T10:37:29.988Z,21.46
2022-10-11T10:38:30.021Z,21.86
2022-10-11T10:39:29.958Z,21.93
2022-10-11T10:40:29.925Z,21.53
2022-10-11T10:41:29.985Z,21.42
2022-10-11T10:42:29.897Z,21.00
2022-10-11T10:43:29.904Z,20.79
2022-10-11T10:44:29.866Z,20.33
2022-10-11T10:45:29.878Z,19.87
2022-10-11T10:46:29.894Z,19.68
2022-10-11T10:47:29.934Z,19.35
2022-10-11T10:48:41.722Z,18.78
2022-10-11T10:50:31.786Z,18.04
2022-10-11T10:51:29.881Z,17.70
2022-10-11T10:52:29.751Z,17.49
2022-10-11T10:53:29.736Z,17.36
2022-10-11T10:54:29.735Z,17.20
2022-10-11T10:55:29.704Z,17.05
2022-10-11T10:56:29.729Z,17.02
2022-10-11T10:57:29.686Z,16.84
2022-10-11T10:58:29.646Z,16.81
2022-10-11T10:59:30.325Z,16.78
2022-10-11T11:00:29.643Z,16.54
2022-10-11T11:01:29.694Z,16.37
2022-10-11T11:02:40.228Z,16.18
2022-10-11T11:03:31.580Z,16.14
2022-10-11T11:04:29.559Z,15.99
2022-10-11T11:05:29.531Z,15.91
2022-10-11T11:06:32.825Z,15.78
2022-10-11T11:07:30.535Z,15.77
2022-10-11T11:08:29.490Z,15.62
2022-10-11T11:09:29.466Z,15.55
2022-10-11T11:10:29.424Z,15.51
2022-10-11T11:11:29.473Z,15.48
2022-10-11T11:12:29.413Z,15.37
2022-10-11T11:13:29.429Z,15.35
2022-10-11T11:14:29.423Z,15.31
2022-10-11T11:15:32.655Z,15.20
2022-10-11T11:16:31.418Z,15.23
2022-10-11T11:17:29.320Z,15.46
2022-10-11T11:18:29.310Z,15.66
2022-10-11T11:19:29.282Z,15.62
2022-10-11T11:20:29.296Z,15.77
2022-10-11T11:21:29.283Z,15.76
2022-10-11T11:22:32.729Z,15.91
2022-10-11T11:23:30.240Z,15.86
2022-10-11T11:24:29.197Z,15.80
2022-10-11T11:25:29.198Z,15.73
2022-10-11T11:26:29.206Z,15.76
2022-10-11T11:27:29.144Z,15.59
2022-10-11T11:28:29.138Z,15.70
2022-10-11T11:29:29.097Z,15.73
2022-10-11T11:30:29.094Z,15.73
2022-10-11T11:31:29.114Z,15.77
2022-10-11T11:32:29.058Z,15.81
2022-10-11T11:33:29.058Z,15.89
2022-10-11T11:34:29.032Z,15.98
2022-10-11T11:35:29.003Z,16.04
2022-10-11T11:36:29.038Z,16.30
2022-10-11T11:37:29.012Z,16.41
2022-10-11T11:38:29.881Z,16.54
2022-10-11T11:39:29.977Z,16.62
2022-10-11T11:40:28.922Z,16.55
2022-10-11T11:41:28.905Z,16.60
2022-10-11T11:42:28.932Z,16.59
2022-10-11T11:43:28.868Z,16.63
2022-10-11T11:44:28.881Z,16.62
2022-10-11T11:45:28.835Z,16.50
2022-10-11T11:46:28.838Z,16.42
2022-10-11T11:47:28.850Z,16.40
2022-10-11T11:48:28.809Z,16.23
2022-10-11T11:49:28.832Z,16.17
2022-10-11T11:50:30.506Z,16.25
2022-10-11T11:51:30.652Z,16.22
2022-10-11T11:52:28.783Z,16.14
2022-10-11T11:53:28.708Z,16.22
2022-10-11T11:54:28.707Z,16.26
2022-10-11T11:55:28.690Z,16.16
2022-10-11T11:56:28.658Z,16.14
2022-10-11T11:57:28.708Z,16.01
2022-10-11T11:58:28.655Z,16.11
2022-10-11T11:59:28.642Z,15.96
2022-10-11T12:00:28.628Z,15.96
2022-10-11T12:01:31.312Z,15.92
2022-10-11T12:02:29.620Z,15.89
2022-10-11T12:03:28.526Z,15.77
2022-10-11T12:04:28.588Z,15.76
2022-10-11T12:05:28.511Z,15.64
2022-10-11T12:06:28.560Z,15.56
2022-10-11T12:07:28.523Z,15.62
2022-10-11T12:08:28.454Z,15.62
2022-10-11T12:09:28.466Z,15.41
2022-10-11T12:10:28.428Z,15.35
2022-10-11T12:11:31.777Z,15.34
2022-10-11T12:12:30.487Z,15.30
2022-10-11T12:13:32.243Z,15.46
2022-10-11T12:14:29.413Z,15.49
2022-10-11T12:15:28.348Z,15.41
2022-10-11T12:16:28.324Z,15.28
2022-10-11T12:17:28.332Z,15.31
2022-10-11T12:18:28.335Z,15.13
2022-10-11T12:19:28.287Z,15.05
2022-10-11T12:20:28.278Z,15.07
2022-10-11T12:21:28.264Z,14.79
2022-10-11T12:22:28.267Z,14.69
2022-10-11T12:23:28.235Z,14.59
2022-10-11T12:24:28.194Z,14.61
2022-10-11T12:25:28.208Z,14.52
2022-10-11T12:26:28.181Z,14.60
2022-10-11T12:27:28.196Z,14.56
2022-10-11T12:28:28.211Z,14.46
2022-10-11T12:29:29.257Z,14.48
2022-10-11T12:30:29.157Z,14.49
2022-10-11T12:31:28.071Z,14.54
2022-10-11T12:32:28.107Z,14.53
2022-10-11T12:33:28.091Z,14.52
2022-10-11T12:34:28.095Z,14.60
2022-10-11T12:35:28.080Z,14.64
2022-10-11T12:36:28.025Z,14.59
2022-10-11T12:37:28.019Z,14.59
2022-10-11T12:38:27.980Z,14.78
2022-10-11T12:39:27.951Z,14.80
2022-10-11T12:40:27.945Z,14.75
2022-10-11T12:41:27.957Z,14.83
2022-10-11T12:42:27.971Z,14.72
2022-10-11T12:43:27.897Z,14.75
2022-10-11T12:44:27.858Z,14.86
2022-10-11T12:45:27.864Z,15.00
2022-10-11T12:46:27.846Z,14.95
2022-10-11T12:47:27.854Z,15.03
2022-10-11T12:48:33.230Z,15.09
2022-10-11T12:49:29.836Z,15.12
2022-10-11T12:50:27.788Z,15.04
2022-10-11T12:51:27.743Z,15.07
2022-10-11T12:52:27.776Z,15.13
2022-10-11T12:53:27.709Z,15.15
2022-10-11T12:54:30.968Z,15.23
2022-10-11T12:55:29.702Z,15.28
2022-10-11T12:56:27.675Z,15.33
2022-10-11T12:57:27.726Z,15.28
2022-10-11T12:58:27.620Z,15.33
2022-10-11T12:59:27.650Z,15.28
2022-10-11T13:00:27.600Z,15.23
2022-10-11T13:01:28.671Z,15.13
2022-10-11T13:02:28.694Z,15.12
2022-10-11T13:03:32.347Z,14.98
2022-10-11T13:04:28.518Z,14.90
2022-10-11T13:05:27.550Z,14.80
2022-10-11T13:06:27.492Z,14.54